createdAt,value
2018-08-25T00:00:53.876Z,12.70
2018-08-25T00:03:22.256Z,12.70
2018-08-25T00:05:50.583Z,12.70
2018-08-25T00:08:19.256Z,12.70
2018-08-25T00:10:47.634Z,12.70
2018-08-25T00:13:16.042Z,12.70
2018-08-25T00:15:44.444Z,12.70
2018-08-25T00:18:13.076Z,12.80
2018-08-25T00:20:41.469Z,12.80
2018-08-25T00:23:09.836Z,12.80
2018-08-25T00:25:38.244Z,12.80
2018-08-25T00:28:06.904Z,12.80
2018-08-25T00:30:40.529Z,12.80
2018-08-25T00:33:08.934Z,12.80
2018-08-25T00:35:37.476Z,12.70
2018-08-25T00:38:06.620Z,12.70
2018-08-25T00:40:34.961Z,12.70
2018-08-25T00:43:03.511Z,12.70
2018-08-25T00:45:31.861Z,12.70
2018-08-25T00:48:00.204Z,12.70
2018-08-25T00:50:28.922Z,12.70
2018-08-25T00:52:57.309Z,12.70
2018-08-25T00:55:25.628Z,12.60
2018-08-25T00:57:54.048Z,12.50
2018-08-25T01:00:22.468Z,12.50
2018-08-25T01:02:50.832Z,12.40
2018-08-25T01:05:19.428Z,12.40
2018-08-25T01:07:47.799Z,12.40
2018-08-25T01:10:16.302Z,12.40
2018-08-25T01:12:44.753Z,12.40
2018-08-25T01:15:13.122Z,12.40
2018-08-25T01:17:41.484Z,12.30
2018-08-25T01:20:10.220Z,12.30
2018-08-25T01:22:38.568Z,12.30
2018-08-25T01:25:06.950Z,12.30
2018-08-25T01:27:35.387Z,12.30
2018-08-25T01:30:03.792Z,12.30
2018-08-25T01:32:32.122Z,12.30
2018-08-25T01:35:00.530Z,12.30
2018-08-25T01:37:29.073Z,12.30
2018-08-25T01:39:57.428Z,12.30
2018-08-25T01:42:25.784Z,12.30
2018-08-25T01:44:54.376Z,12.20
2018-08-25T01:47:22.727Z,12.30
2018-08-25T01:49:51.072Z,12.20
2018-08-25T01:52:19.599Z,12.20
2018-08-25T01:54:47.944Z,12.20
2018-08-25T01:57:16.290Z,12.20
2018-08-25T01:59:44.852Z,12.20
2018-08-25T02:02:13.222Z,12.20
2018-08-25T02:04:41.564Z,12.20
2018-08-25T02:07:10.296Z,12.20
2018-08-25T02:09:38.641Z,12.30
2018-08-25T02:12:06.997Z,12.30
2018-08-25T02:14:35.384Z,12.20
2018-08-25T02:17:03.800Z,12.20
2018-08-25T02:19:32.205Z,12.20
2018-08-25T02:22:00.541Z,12.20
2018-08-25T02:24:28.908Z,12.20
2018-08-25T02:26:57.367Z,12.20
2018-08-25T02:29:25.828Z,12.20
2018-08-25T02:31:54.187Z,12.20
2018-08-25T02:34:22.713Z,12.20
2018-08-25T02:36:51.076Z,12.20
2018-08-25T02:39:19.430Z,12.20
2018-08-25T02:41:48.069Z,12.30
2018-08-25T02:44:16.584Z,12.30
2018-08-25T02:46:44.976Z,12.30
2018-08-25T02:49:13.681Z,12.30
2018-08-25T02:51:42.037Z,12.40
2018-08-25T02:54:10.474Z,12.40
2018-08-25T02:56:39.415Z,12.40
2018-08-25T02:59:07.774Z,12.40
2018-08-25T03:01:36.197Z,12.40
2018-08-25T03:04:04.821Z,12.40
2018-08-25T03:06:33.209Z,12.40
2018-08-25T03:09:01.580Z,12.40
2018-08-25T03:11:29.973Z,12.40
2018-08-25T03:13:58.357Z,12.40
2018-08-25T03:16:26.796Z,12.40
2018-08-25T03:18:55.176Z,12.40
2018-08-25T03:21:23.515Z,12.40
2018-08-25T03:23:52.138Z,12.40
2018-08-25T03:26:20.474Z,12.40
2018-08-25T03:28:48.837Z,12.40
2018-08-25T03:31:17.355Z,12.40
2018-08-25T03:33:45.729Z,12.50
2018-08-25T03:36:14.081Z,12.50
2018-08-25T03:38:42.555Z,12.50
2018-08-25T03:41:10.921Z,12.60
2018-08-25T03:43:39.879Z,12.60
2018-08-25T03:46:08.280Z,12.60
2018-08-25T03:48:36.646Z,12.60
2018-08-25T03:51:05.168Z,12.50
2018-08-25T03:53:33.592Z,12.50
2018-08-25T03:56:01.949Z,12.50
2018-08-25T03:58:30.407Z,12.50
2018-08-25T04:00:59.016Z,12.40
2018-08-25T04:03:27.356Z,12.40
2018-08-25T04:05:55.708Z,12.40
2018-08-25T04:08:24.101Z,12.40
2018-08-25T04:10:52.486Z,12.40
2018-08-25T04:13:21.139Z,12.40
2018-08-25T04:15:49.537Z,12.40
2018-08-25T04:18:17.904Z,12.40
2018-08-25T04:20:46.448Z,12.50
2018-08-25T04:23:14.828Z,12.50
2018-08-25T04:25:43.169Z,12.50
2018-08-25T04:28:11.862Z,12.50
2018-08-25T04:30:40.507Z,12.50
2018-08-25T04:33:08.868Z,12.50
2018-08-25T04:35:37.251Z,12.40
2018-08-25T04:38:05.888Z,12.40
2018-08-25T04:40:34.266Z,12.50
2018-08-25T04:43:02.857Z,12.50
2018-08-25T04:45:31.509Z,12.50
2018-08-25T04:47:59.847Z,12.60
2018-08-25T04:50:28.230Z,12.60
2018-08-25T04:52:56.878Z,12.70
2018-08-25T04:55:25.265Z,11.70
2018-08-25T04:57:53.640Z,12.90
2018-08-25T05:00:22.254Z,12.90
2018-08-25T05:02:50.627Z,13.00
2018-08-25T05:05:19.167Z,13.00
2018-08-25T05:07:47.795Z,13.00
2018-08-25T05:10:16.141Z,13.10
2018-08-25T05:12:44.540Z,13.20
2018-08-25T05:15:13.176Z,13.30
2018-08-25T05:17:41.625Z,13.40
2018-08-25T05:20:10.021Z,13.60
2018-08-25T05:22:38.432Z,13.70
2018-08-25T05:25:07.280Z,13.80
2018-08-25T05:27:35.757Z,13.80
2018-08-25T05:30:04.909Z,13.90
2018-08-25T05:32:33.356Z,13.80
2018-08-25T05:35:01.746Z,14.10
2018-08-25T05:37:30.174Z,14.70
2018-08-25T05:39:58.554Z,15.50
2018-08-25T05:42:26.989Z,16.20
2018-08-25T05:44:55.366Z,16.90
2018-08-25T05:47:23.779Z,17.80
2018-08-25T05:49:52.487Z,18.40
2018-08-25T05:52:20.885Z,18.70
2018-08-25T05:54:49.332Z,19.30
2018-08-25T05:57:18.012Z,20.10
2018-08-25T05:59:47.241Z,20.70
2018-08-25T06:02:15.739Z,21.40
2018-08-25T06:04:44.164Z,21.80
2018-08-25T06:07:13.132Z,21.50
2018-08-25T06:09:41.552Z,20.80
2018-08-25T06:12:10.248Z,20.40
2018-08-25T06:14:38.805Z,19.90
2018-08-25T06:17:07.245Z,19.50
2018-08-25T06:19:36.852Z,19.50
2018-08-25T06:22:05.300Z,19.60
2018-08-25T06:24:33.686Z,19.50
2018-08-25T06:27:02.129Z,19.20
2018-08-25T06:29:30.698Z,18.60
2018-08-25T06:31:59.113Z,18.10
2018-08-25T06:34:27.706Z,17.50
2018-08-25T06:36:56.117Z,17.20
2018-08-25T06:39:24.510Z,16.90
2018-08-25T06:41:52.970Z,16.40
2018-08-25T06:44:21.364Z,16.10
2018-08-25T06:46:49.848Z,16.10
2018-08-25T06:49:18.440Z,15.90
2018-08-25T06:51:46.821Z,15.70
2018-08-25T06:54:15.340Z,15.60
2018-08-25T06:56:44.468Z,15.50
2018-08-25T06:59:12.824Z,15.40
2018-08-25T07:01:41.192Z,15.40
2018-08-25T07:04:09.629Z,15.50
2018-08-25T07:06:38.036Z,15.40
2018-08-25T07:09:09.426Z,15.60
2018-08-25T07:11:37.845Z,15.70
2018-08-25T07:14:06.313Z,15.90
2018-08-25T07:16:34.781Z,16.00
2018-08-25T07:19:03.380Z,16.10
2018-08-25T07:21:31.833Z,16.10
2018-08-25T07:24:00.333Z,16.10
2018-08-25T07:26:30.765Z,16.20
2018-08-25T07:28:59.357Z,16.10
2018-08-25T07:31:28.287Z,16.00
2018-08-25T07:33:56.808Z,15.90
2018-08-25T07:36:25.221Z,15.80
2018-08-25T07:38:53.865Z,15.80
2018-08-25T07:41:22.230Z,15.80
2018-08-25T07:43:50.760Z,15.80
2018-08-25T07:46:19.341Z,15.70
2018-08-25T07:48:47.824Z,15.60
2018-08-25T07:51:16.222Z,15.20
2018-08-25T07:53:45.638Z,15.10
2018-08-25T07:56:14.066Z,15.00
2018-08-25T07:58:42.673Z,14.90
2018-08-25T08:01:11.605Z,14.90
2018-08-25T08:03:40.106Z,14.80
2018-08-25T08:06:12.111Z,14.80
2018-08-25T08:08:41.624Z,14.60
2018-08-25T08:11:10.447Z,14.50
2018-08-25T08:13:39.345Z,14.50
2018-08-25T08:16:07.817Z,14.40
2018-08-25T08:18:39.515Z,14.20
2018-08-25T08:21:07.980Z,14.20
2018-08-25T08:23:36.400Z,14.30
2018-08-25T08:26:04.969Z,14.30
2018-08-25T08:28:33.307Z,14.30
2018-08-25T08:31:01.769Z,14.30
2018-08-25T08:33:30.196Z,14.30
2018-08-25T08:35:58.610Z,14.20
2018-08-25T08:38:27.033Z,14.20
2018-08-25T08:40:55.417Z,14.10
2018-08-25T08:43:24.017Z,14.00
2018-08-25T08:45:52.393Z,14.10
2018-08-25T08:48:20.746Z,14.20
2018-08-25T08:50:49.336Z,14.00
2018-08-25T08:53:17.809Z,13.90
2018-08-25T08:55:46.586Z,13.90
2018-08-25T08:58:15.022Z,13.70
2018-08-25T09:00:43.433Z,13.60
2018-08-25T09:03:11.853Z,13.40
2018-08-25T09:05:40.341Z,13.40
2018-08-25T09:08:08.713Z,13.30
2018-08-25T09:10:37.188Z,13.40
2018-08-25T09:13:05.580Z,13.40
2018-08-25T09:15:34.177Z,13.40
2018-08-25T09:18:02.647Z,13.50
2018-08-25T09:20:31.070Z,13.60
2018-08-25T09:22:59.531Z,13.50
2018-08-25T09:25:28.204Z,13.60
2018-08-25T09:27:56.604Z,13.60
2018-08-25T09:30:25.080Z,13.60
2018-08-25T09:32:53.813Z,13.70
2018-08-25T09:35:22.208Z,13.60
2018-08-25T09:37:50.665Z,13.70
2018-08-25T09:40:19.348Z,13.70
2018-08-25T09:42:47.724Z,13.90
2018-08-25T09:45:16.084Z,14.10
2018-08-25T09:47:44.529Z,14.50
2018-08-25T09:50:12.952Z,14.90
2018-08-25T09:52:41.652Z,15.10
2018-08-25T09:55:10.083Z,15.30
2018-08-25T09:57:38.436Z,15.50
2018-08-25T10:00:07.142Z,15.80
2018-08-25T10:02:35.738Z,16.00
2018-08-25T10:05:04.175Z,15.90
2018-08-25T10:07:32.746Z,15.90
2018-08-25T10:10:01.129Z,15.70
2018-08-25T10:12:29.501Z,15.60
2018-08-25T10:14:58.169Z,15.50
2018-08-25T10:17:26.792Z,15.40
2018-08-25T10:19:55.141Z,15.20
2018-08-25T10:22:23.485Z,15.10
2018-08-25T10:24:52.179Z,15.00
2018-08-25T10:27:20.608Z,14.80
2018-08-25T10:29:49.880Z,14.50
2018-08-25T10:32:18.428Z,14.40
2018-08-25T10:34:47.004Z,14.30
2018-08-25T10:37:15.743Z,14.50
2018-08-25T10:39:44.146Z,14.80
2018-08-25T10:42:12.659Z,15.00
2018-08-25T10:44:41.470Z,15.10
2018-08-25T10:47:10.004Z,15.00
2018-08-25T10:49:38.519Z,14.80
2018-08-25T10:52:07.284Z,14.80
2018-08-25T10:54:35.793Z,14.90
2018-08-25T10:57:04.824Z,15.10
2018-08-25T10:59:33.457Z,15.00
2018-08-25T11:02:02.068Z,15.20
2018-08-25T11:04:30.514Z,15.50
2018-08-25T11:06:59.341Z,15.70
2018-08-25T11:09:27.820Z,16.00
2018-08-25T11:11:56.316Z,15.90
2018-08-25T11:14:25.741Z,15.70
2018-08-25T11:16:54.365Z,15.60
2018-08-25T11:19:22.868Z,15.40
2018-08-25T11:21:53.749Z,15.30
2018-08-25T11:24:22.332Z,15.20
2018-08-25T11:26:50.926Z,15.00
2018-08-25T11:29:19.574Z,14.70
2018-08-25T11:31:48.105Z,14.60
2018-08-25T11:34:16.764Z,14.70
2018-08-25T11:36:45.479Z,14.40
2018-08-25T11:39:14.620Z,14.30
2018-08-25T11:41:43.173Z,14.40
2018-08-25T11:44:11.716Z,14.50
2018-08-25T11:46:40.229Z,14.70
2018-08-25T11:49:08.761Z,14.70
2018-08-25T11:51:37.231Z,15.00
2018-08-25T11:54:06.139Z,15.10
2018-08-25T11:56:34.959Z,15.20
2018-08-25T11:59:03.442Z,15.40
2018-08-25T12:01:33.085Z,15.60
2018-08-25T12:04:01.800Z,15.90
2018-08-25T12:06:31.509Z,16.00
2018-08-25T12:09:00.876Z,16.10
2018-08-25T12:11:29.486Z,16.20
2018-08-25T12:13:58.501Z,16.20
2018-08-25T12:16:27.261Z,16.20
2018-08-25T12:18:55.713Z,16.10
2018-08-25T12:21:24.605Z,16.10
2018-08-25T12:23:53.404Z,16.20
2018-08-25T12:26:23.349Z,16.30
2018-08-25T12:28:53.413Z,16.30
2018-08-25T12:31:23.358Z,16.30
2018-08-25T12:33:53.030Z,16.30
2018-08-25T12:36:21.514Z,16.30
2018-08-25T12:38:50.940Z,16.30
2018-08-25T12:41:20.358Z,16.40
2018-08-25T12:43:51.872Z,16.30
2018-08-25T12:46:20.919Z,16.50
2018-08-25T12:48:50.563Z,16.60
2018-08-25T12:51:19.286Z,16.60
2018-08-25T12:53:47.966Z,16.60
2018-08-25T12:56:16.549Z,16.50
2018-08-25T12:58:45.407Z,16.30
2018-08-25T13:01:14.129Z,16.20
2018-08-25T13:03:42.568Z,16.30
2018-08-25T13:06:11.105Z,16.10
2018-08-25T13:08:39.691Z,16.00
2018-08-25T13:11:08.289Z,15.80
2018-08-25T13:13:36.977Z,15.80
2018-08-25T13:16:05.930Z,15.80
2018-08-25T13:18:34.897Z,15.80
2018-08-25T13:21:03.994Z,15.90
2018-08-25T13:23:33.538Z,16.10
2018-08-25T13:26:02.234Z,16.20
2018-08-25T13:28:30.919Z,16.20
2018-08-25T13:30:59.425Z,16.10
2018-08-25T13:33:28.129Z,16.00
2018-08-25T13:35:56.813Z,15.90
2018-08-25T13:38:25.424Z,15.80
2018-08-25T13:40:54.761Z,15.70
2018-08-25T13:43:24.400Z,15.60
2018-08-25T13:45:54.018Z,15.50
2018-08-25T13:48:23.612Z,15.50
2018-08-25T13:50:52.097Z,15.40
2018-08-25T13:53:20.828Z,15.40
2018-08-25T13:55:49.616Z,15.40
2018-08-25T13:58:19.047Z,15.30
2018-08-25T14:00:47.937Z,15.40
2018-08-25T14:03:16.533Z,15.50
2018-08-25T14:05:45.189Z,15.70
2018-08-25T14:08:13.626Z,15.90
2018-08-25T14:10:42.111Z,16.20
2018-08-25T14:13:10.684Z,16.30
2018-08-25T14:15:39.039Z,16.40
2018-08-25T14:18:07.541Z,16.60
2018-08-25T14:20:35.945Z,16.90
2018-08-25T14:23:04.352Z,17.20
2018-08-25T14:25:32.746Z,17.40
2018-08-25T14:28:01.288Z,17.60
2018-08-25T14:30:29.636Z,17.60
2018-08-25T14:32:58.000Z,17.60
2018-08-25T14:35:26.465Z,17.40
2018-08-25T14:37:54.804Z,17.20
2018-08-25T14:40:23.397Z,17.10
2018-08-25T14:42:51.873Z,17.00
2018-08-25T14:45:20.285Z,17.00
2018-08-25T14:47:48.893Z,17.10
2018-08-25T14:50:17.252Z,16.90
2018-08-25T14:52:45.628Z,16.80
2018-08-25T14:55:14.307Z,16.60
2018-08-25T14:57:42.660Z,16.40
2018-08-25T15:00:11.060Z,16.20
2018-08-25T15:02:39.520Z,16.10
2018-08-25T15:05:07.905Z,16.10
2018-08-25T15:07:36.484Z,16.10
2018-08-25T15:10:05.434Z,16.10
2018-08-25T15:12:33.896Z,16.10
2018-08-25T15:15:02.521Z,16.10
2018-08-25T15:17:30.921Z,16.00
2018-08-25T15:19:59.277Z,15.80
2018-08-25T15:22:27.725Z,15.70
2018-08-25T15:24:56.089Z,15.50
2018-08-25T15:27:25.114Z,15.40
2018-08-25T15:29:53.500Z,15.50
2018-08-25T15:32:21.853Z,15.50
2018-08-25T15:34:50.192Z,15.60
2018-08-25T15:37:18.777Z,15.70
2018-08-25T15:39:47.145Z,15.60
2018-08-25T15:42:15.532Z,15.60
2018-08-25T15:44:43.913Z,15.50
2018-08-25T15:47:12.351Z,15.50
2018-08-25T15:49:40.847Z,15.50
2018-08-25T15:52:09.271Z,15.40
2018-08-25T15:54:37.653Z,15.40
2018-08-25T15:57:06.099Z,15.30
2018-08-25T15:59:35.036Z,15.20
2018-08-25T16:02:03.413Z,15.20
2018-08-25T16:04:31.818Z,15.30
2018-08-25T16:07:00.372Z,15.40
2018-08-25T16:09:28.733Z,15.30
2018-08-25T16:11:57.184Z,15.30
2018-08-25T16:14:25.968Z,15.40
2018-08-25T16:16:55.229Z,15.40
2018-08-25T16:19:23.579Z,15.40
2018-08-25T16:21:52.157Z,15.30
2018-08-25T16:24:20.532Z,15.40
2018-08-25T16:26:49.004Z,15.40
2018-08-25T16:29:17.734Z,15.40
2018-08-25T16:31:46.120Z,15.40
2018-08-25T16:34:14.844Z,15.30
2018-08-25T16:36:43.440Z,15.20
2018-08-25T16:39:11.848Z,15.10
2018-08-25T16:41:40.310Z,15.10
2018-08-25T16:44:08.815Z,15.10
2018-08-25T16:46:37.299Z,15.10
2018-08-25T16:49:06.075Z,15.00
2018-08-25T16:51:34.432Z,15.00
2018-08-25T16:54:02.772Z,14.90
2018-08-25T16:56:31.344Z,14.80
2018-08-25T16:58:59.702Z,14.90
2018-08-25T17:01:28.102Z,14.90
2018-08-25T17:03:56.694Z,14.80
2018-08-25T17:06:25.106Z,14.90
2018-08-25T17:08:53.478Z,14.90
2018-08-25T17:11:22.020Z,14.90
2018-08-25T17:13:50.373Z,14.90
2018-08-25T17:16:18.756Z,14.80
2018-08-25T17:18:47.160Z,14.70
2018-08-25T17:21:15.582Z,14.60
2018-08-25T17:23:43.961Z,14.60
2018-08-25T17:26:12.416Z,14.60
2018-08-25T17:28:40.765Z,14.50
2018-08-25T17:31:09.124Z,14.50
2018-08-25T17:33:37.641Z,14.40
2018-08-25T17:36:06.326Z,14.40
2018-08-25T17:38:34.740Z,14.40
2018-08-25T17:41:03.376Z,14.20
2018-08-25T17:43:31.717Z,14.20
2018-08-25T17:46:00.077Z,14.10
2018-08-25T17:48:28.676Z,14.00
2018-08-25T17:50:58.008Z,13.90
2018-08-25T17:53:26.564Z,13.80
2018-08-25T17:55:55.131Z,13.80
2018-08-25T17:58:23.540Z,13.80
2018-08-25T18:00:51.908Z,13.80
2018-08-25T18:03:20.416Z,13.80
2018-08-25T18:05:48.760Z,13.80
2018-08-25T18:08:17.120Z,13.80
2018-08-25T18:10:45.549Z,13.70
2018-08-25T18:13:13.953Z,13.60
2018-08-25T18:15:42.474Z,13.60
2018-08-25T18:18:11.152Z,13.60
2018-08-25T18:20:39.513Z,13.50
2018-08-25T18:23:07.893Z,13.50
2018-08-25T18:25:36.468Z,13.40
2018-08-25T18:28:04.972Z,13.40
2018-08-25T18:30:33.329Z,13.30
2018-08-25T18:33:02.043Z,13.30
2018-08-25T18:35:30.753Z,13.30
2018-08-25T18:37:59.181Z,13.20
2018-08-25T18:40:28.391Z,13.20
2018-08-25T18:42:57.144Z,13.20
2018-08-25T18:45:25.525Z,13.20
2018-08-25T18:47:53.929Z,13.10
2018-08-25T18:50:22.483Z,13.10
2018-08-25T18:52:50.861Z,13.10
2018-08-25T18:55:19.272Z,13.10
2018-08-25T18:57:47.754Z,13.10
2018-08-25T19:00:16.384Z,13.00
2018-08-25T19:02:44.805Z,13.00
2018-08-25T19:05:13.254Z,12.90
2018-08-25T19:07:41.888Z,12.90
2018-08-25T19:10:10.320Z,12.90
2018-08-25T19:12:38.784Z,12.80
2018-08-25T19:15:07.216Z,12.80
2018-08-25T19:17:35.713Z,12.80
2018-08-25T19:20:04.123Z,12.80
2018-08-25T19:22:32.622Z,12.80
2018-08-25T19:25:00.993Z,12.80
2018-08-25T19:27:29.369Z,12.80
2018-08-25T19:29:57.814Z,12.80
2018-08-25T19:32:26.212Z,12.80
2018-08-25T19:34:54.744Z,12.80
2018-08-25T19:37:23.100Z,12.70
2018-08-25T19:39:51.617Z,12.70
2018-08-25T19:42:20.067Z,12.70
2018-08-25T19:44:48.528Z,12.70
2018-08-25T19:47:16.885Z,12.70
2018-08-25T19:49:45.579Z,12.70
2018-08-25T19:52:14.025Z,12.70
2018-08-25T19:54:42.780Z,12.60
2018-08-25T19:57:11.150Z,12.60
2018-08-25T19:59:42.342Z,12.60
2018-08-25T20:02:10.955Z,12.60
2018-08-25T20:04:39.325Z,12.50
2018-08-25T20:07:07.874Z,12.50
2018-08-25T20:09:36.396Z,12.40
2018-08-25T20:12:04.801Z,12.40
2018-08-25T20:14:33.244Z,12.30
2018-08-25T20:17:01.625Z,12.30
2018-08-25T20:19:30.000Z,12.30
2018-08-25T20:21:59.527Z,13.70
2018-08-25T20:24:27.937Z,12.20
2018-08-25T20:26:56.346Z,12.20
2018-08-25T20:29:24.880Z,12.20
2018-08-25T20:31:53.268Z,12.10
2018-08-25T20:34:21.621Z,12.00
2018-08-25T20:36:50.456Z,12.00
2018-08-25T20:39:18.977Z,12.00
2018-08-25T20:41:47.618Z,12.00
2018-08-25T20:44:16.204Z,12.00
2018-08-25T20:46:44.965Z,11.90
2018-08-25T20:49:13.439Z,11.80
2018-08-25T20:51:42.182Z,11.90
2018-08-25T20:54:10.863Z,11.90
2018-08-25T20:56:39.377Z,11.80
2018-08-25T20:59:07.863Z,11.80
2018-08-25T21:01:36.300Z,11.80
2018-08-25T21:04:04.771Z,11.80
2018-08-25T21:06:33.361Z,11.80
2018-08-25T21:09:01.829Z,11.70
2018-08-25T21:11:30.302Z,11.70
2018-08-25T21:13:58.693Z,11.70
2018-08-25T21:16:27.389Z,11.70
2018-08-25T21:18:55.848Z,11.60
2018-08-25T21:21:24.267Z,11.60
2018-08-25T21:23:52.704Z,11.60
2018-08-25T21:26:21.354Z,11.60
2018-08-25T21:28:49.765Z,11.50
2018-08-25T21:31:18.445Z,11.50
2018-08-25T21:33:47.074Z,11.50
2018-08-25T21:36:15.476Z,11.40
2018-08-25T21:38:43.900Z,11.40
2018-08-25T21:41:12.353Z,11.50
2018-08-25T21:43:40.714Z,11.40
2018-08-25T21:46:09.111Z,11.40
2018-08-25T21:48:37.883Z,11.40
2018-08-25T21:51:06.290Z,11.40
2018-08-25T21:53:34.620Z,11.40
2018-08-25T21:56:03.406Z,11.40
2018-08-25T21:58:31.804Z,11.40
2018-08-25T22:01:00.630Z,11.40
2018-08-25T22:03:29.134Z,11.40
2018-08-25T22:05:57.792Z,11.40
2018-08-25T22:08:26.227Z,11.40
2018-08-25T22:10:54.960Z,11.30
2018-08-25T22:13:23.497Z,11.30
2018-08-25T22:15:51.869Z,11.30
2018-08-25T22:18:20.657Z,11.30
2018-08-25T22:20:49.095Z,11.30
2018-08-25T22:23:17.549Z,11.40
2018-08-25T22:25:45.941Z,11.50
2018-08-25T22:28:14.392Z,11.50
2018-08-25T22:30:42.785Z,11.60
2018-08-25T22:33:11.149Z,11.60
2018-08-25T22:35:39.498Z,11.60
2018-08-25T22:38:08.196Z,11.60
2018-08-25T22:40:36.605Z,11.60
2018-08-25T22:43:05.168Z,11.60
2018-08-25T22:45:33.822Z,11.50
2018-08-25T22:48:02.203Z,11.40
2018-08-25T22:50:31.361Z,11.40
2018-08-25T22:52:59.962Z,11.30
2018-08-25T22:55:28.334Z,11.30
2018-08-25T22:57:56.705Z,11.30
2018-08-25T23:00:25.466Z,11.30
2018-08-25T23:02:53.837Z,11.30
2018-08-25T23:05:22.235Z,11.20
2018-08-25T23:07:50.632Z,11.30
2018-08-25T23:10:19.198Z,11.30
2018-08-25T23:12:47.572Z,11.30
2018-08-25T23:15:15.920Z,11.30
2018-08-25T23:17:44.456Z,11.30
2018-08-25T23:20:12.895Z,11.30
2018-08-25T23:22:41.252Z,11.30
2018-08-25T23:25:09.941Z,11.20
2018-08-25T23:27:38.348Z,11.20
2018-08-25T23:30:06.771Z,11.20
2018-08-25T23:32:35.298Z,11.20
2018-08-25T23:35:03.652Z,11.10
2018-08-25T23:37:32.089Z,11.10
2018-08-25T23:40:00.745Z,11.10
2018-08-25T23:42:29.115Z,11.10
2018-08-25T23:44:57.453Z,11.10
2018-08-25T23:47:26.067Z,11.10
2018-08-25T23:49:54.508Z,11.00
2018-08-25T23:52:22.855Z,11.00
2018-08-25T23:54:51.279Z,11.10
2018-08-25T23:57:19.640Z,11.10
2018-08-25T23:59:48.008Z,11.00
